createdAt,value
2023-05-10T00:02:32.760Z,11.90
2023-05-10T00:05:35.905Z,11.90
2023-05-10T00:08:38.906Z,11.90
2023-05-10T00:11:42.074Z,11.90
2023-05-10T00:14:45.079Z,11.90
2023-05-10T00:17:49.709Z,11.70
2023-05-10T00:20:52.875Z,11.70
2023-05-10T00:23:56.104Z,11.70
2023-05-10T00:26:59.196Z,11.70
2023-05-10T00:30:02.252Z,11.70
2023-05-10T00:33:07.091Z,11.70
2023-05-10T00:36:10.538Z,11.70
2023-05-10T00:39:16.335Z,11.70
2023-05-10T00:42:19.365Z,11.70
2023-05-10T00:45:22.602Z,11.50
2023-05-10T00:48:27.115Z,11.50
2023-05-10T00:51:30.289Z,11.50
2023-05-10T00:54:33.484Z,11.40
2023-05-10T00:57:36.584Z,11.40
2023-05-10T01:00:44.298Z,11.30
2023-05-10T01:03:49.139Z,11.20
2023-05-10T01:06:52.195Z,11.20
2023-05-10T01:09:55.446Z,11.10
2023-05-10T01:13:01.380Z,11.10
2023-05-10T01:16:04.586Z,11.10
2023-05-10T01:19:19.109Z,11.00
2023-05-10T01:22:44.668Z,11.00
2023-05-10T01:26:08.197Z,11.00
2023-05-10T01:29:26.637Z,10.90
2023-05-10T01:32:37.415Z,10.90
2023-05-10T01:35:45.155Z,10.90
2023-05-10T01:38:53.726Z,10.80
2023-05-10T01:42:04.421Z,10.70
2023-05-10T01:45:15.900Z,10.70
2023-05-10T01:48:21.985Z,10.70
2023-05-10T01:51:28.450Z,10.60
2023-05-10T01:54:33.190Z,10.60
2023-05-10T01:57:37.936Z,10.50
2023-05-10T02:00:46.328Z,10.50
2023-05-10T02:03:52.768Z,10.50
2023-05-10T02:06:57.097Z,10.50
2023-05-10T02:10:01.334Z,10.40
2023-05-10T02:13:05.380Z,10.30
2023-05-10T02:16:09.323Z,10.40
2023-05-10T02:19:16.203Z,10.40
2023-05-10T02:22:20.404Z,10.30
2023-05-10T02:25:25.449Z,10.30
2023-05-10T02:28:29.546Z,10.20
2023-05-10T02:31:34.625Z,10.30
2023-05-10T02:34:40.491Z,10.20
2023-05-10T02:37:43.999Z,10.20
2023-05-10T02:40:48.357Z,10.20
2023-05-10T02:43:54.107Z,10.10
2023-05-10T02:46:57.952Z,10.10
2023-05-10T02:50:02.626Z,10.10
2023-05-10T02:53:12.519Z,10.10
2023-05-10T02:56:22.649Z,10.10
2023-05-10T02:59:28.580Z,10.00
2023-05-10T03:02:31.968Z,10.00
2023-05-10T03:05:36.594Z,10.00
2023-05-10T03:08:39.800Z,10.00
2023-05-10T03:11:52.522Z,10.00
2023-05-10T03:15:02.691Z,10.00
2023-05-10T03:18:11.688Z,9.90
2023-05-10T03:21:19.885Z,9.90
2023-05-10T03:24:25.072Z,9.80
2023-05-10T03:27:29.873Z,9.80
2023-05-10T03:30:33.657Z,9.80
2023-05-10T03:33:36.680Z,9.70
2023-05-10T03:36:41.394Z,9.70
2023-05-10T03:39:44.534Z,9.70
2023-05-10T03:42:47.710Z,9.70
2023-05-10T03:45:50.710Z,9.70
2023-05-10T03:48:53.753Z,9.80
2023-05-10T03:51:58.337Z,9.70
2023-05-10T03:55:01.405Z,9.70
2023-05-10T03:58:04.490Z,9.70
2023-05-10T04:01:07.548Z,9.70
2023-05-10T04:04:10.944Z,9.70
2023-05-10T04:07:15.330Z,9.70
2023-05-10T04:10:18.762Z,9.70
2023-05-10T04:13:22.245Z,9.80
2023-05-10T04:16:25.447Z,9.80
2023-05-10T04:19:31.788Z,9.80
2023-05-10T04:22:36.216Z,10.00
2023-05-10T04:25:39.221Z,9.90
2023-05-10T04:28:42.208Z,10.00
2023-05-10T04:31:45.397Z,10.00
2023-05-10T04:34:49.292Z,10.00
2023-05-10T04:37:53.667Z,10.10
2023-05-10T04:40:56.942Z,10.20
2023-05-10T04:44:00.048Z,10.20
2023-05-10T04:50:31.575Z,10.40
2023-05-10T04:53:36.124Z,10.50
2023-05-10T04:56:39.334Z,10.70
2023-05-10T04:59:42.310Z,10.80
2023-05-10T05:02:46.355Z,11.00
2023-05-10T05:05:49.444Z,11.10
2023-05-10T05:08:53.914Z,11.30
2023-05-10T05:11:57.080Z,11.60
2023-05-10T05:15:00.241Z,11.80
2023-05-10T05:18:03.547Z,12.00
2023-05-10T05:21:16.193Z,12.20
2023-05-10T05:24:20.586Z,12.50
2023-05-10T05:27:25.091Z,12.50
2023-05-10T05:30:28.217Z,12.90
2023-05-10T05:33:31.218Z,13.10
2023-05-10T05:36:35.839Z,13.50
2023-05-10T05:39:41.386Z,13.70
2023-05-10T05:42:44.437Z,13.90
2023-05-10T05:45:47.442Z,14.20
2023-05-10T05:48:50.665Z,14.30
2023-05-10T05:51:53.626Z,14.50
2023-05-10T05:54:57.999Z,14.80
2023-05-10T05:58:01.017Z,14.80
2023-05-10T06:01:04.318Z,14.90
2023-05-10T06:04:07.438Z,15.10
2023-05-10T06:07:10.743Z,15.40
2023-05-10T06:10:15.030Z,15.30
2023-05-10T06:13:18.161Z,15.40
2023-05-10T06:16:21.182Z,15.50
2023-05-10T06:19:24.247Z,15.50
2023-05-10T06:22:27.224Z,15.70
2023-05-10T06:25:31.596Z,16.00
2023-05-10T06:28:34.686Z,16.40
2023-05-10T06:31:37.788Z,16.40
2023-05-10T06:34:44.300Z,16.40
2023-05-10T06:37:47.669Z,16.40
2023-05-10T06:40:52.018Z,16.20
2023-05-10T06:43:55.061Z,16.40
2023-05-10T06:46:58.119Z,16.60
2023-05-10T06:50:01.555Z,16.60
2023-05-10T06:53:04.814Z,16.90
2023-05-10T06:56:09.215Z,16.90
2023-05-10T06:59:13.525Z,17.00
2023-05-10T07:02:17.478Z,17.20
2023-05-10T07:05:21.374Z,17.20
2023-05-10T07:08:24.583Z,17.10
2023-05-10T07:11:29.059Z,17.00
2023-05-10T07:14:32.012Z,17.10
2023-05-10T07:17:36.296Z,17.10
2023-05-10T07:20:39.503Z,17.20
2023-05-10T07:23:44.829Z,17.20
2023-05-10T07:26:49.601Z,17.20
2023-05-10T07:29:52.582Z,17.20
2023-05-10T07:32:56.398Z,17.00
2023-05-10T07:35:59.547Z,17.00
2023-05-10T07:39:04.288Z,17.00
2023-05-10T07:42:09.277Z,17.00
2023-05-10T07:45:12.583Z,17.00
2023-05-10T07:48:15.597Z,17.00
2023-05-10T07:51:18.553Z,17.20
2023-05-10T07:54:21.597Z,17.20
2023-05-10T07:57:26.001Z,17.20
2023-05-10T08:00:29.467Z,17.20
2023-05-10T08:03:32.545Z,17.40
2023-05-10T08:06:35.675Z,17.50
2023-05-10T08:09:38.852Z,17.50
2023-05-10T08:12:43.170Z,17.40
2023-05-10T08:15:46.191Z,17.40
2023-05-10T08:18:50.257Z,17.40
2023-05-10T08:21:56.311Z,17.60
2023-05-10T08:24:59.339Z,17.60
2023-05-10T08:28:05.173Z,17.70
2023-05-10T08:31:08.356Z,17.70
2023-05-10T08:34:11.682Z,17.80
2023-05-10T08:37:14.930Z,18.00
2023-05-10T08:40:17.879Z,18.10
2023-05-10T08:43:22.305Z,18.30
2023-05-10T08:46:25.563Z,18.50
2023-05-10T08:49:32.406Z,18.50
2023-05-10T08:52:40.020Z,18.50
2023-05-10T08:55:43.798Z,18.60
2023-05-10T08:58:49.877Z,18.70
2023-05-10T09:01:54.543Z,18.80
2023-05-10T09:04:57.700Z,18.90
2023-05-10T09:08:01.430Z,19.00
2023-05-10T09:11:04.789Z,19.10
2023-05-10T09:14:13.955Z,19.30
2023-05-10T09:17:17.263Z,19.30
2023-05-10T09:20:21.388Z,19.20
2023-05-10T09:23:29.496Z,19.40
2023-05-10T09:26:32.602Z,19.50
2023-05-10T09:29:43.964Z,19.70
2023-05-10T09:32:49.941Z,19.80
2023-05-10T09:35:54.280Z,19.80
2023-05-10T09:38:57.252Z,19.70
2023-05-10T09:42:01.728Z,19.80
2023-05-10T09:45:08.821Z,19.90
2023-05-10T09:48:11.805Z,20.00
2023-05-10T09:51:22.025Z,19.90
2023-05-10T09:54:25.595Z,20.00
2023-05-10T09:57:28.618Z,20.20
2023-05-10T10:00:38.395Z,20.30
2023-05-10T10:03:44.855Z,20.40
2023-05-10T10:06:47.831Z,20.30
2023-05-10T10:09:50.990Z,20.30
2023-05-10T10:12:54.050Z,20.30
2023-05-10T10:15:58.991Z,20.30
2023-05-10T10:19:02.677Z,20.20
2023-05-10T10:22:05.882Z,20.30
2023-05-10T10:25:10.281Z,20.50
2023-05-10T10:28:26.065Z,20.50
2023-05-10T10:31:39.749Z,20.70
2023-05-10T10:34:43.071Z,20.80
2023-05-10T10:37:47.497Z,20.80
2023-05-10T10:41:03.518Z,20.80
2023-05-10T10:44:28.510Z,20.80
2023-05-10T10:47:34.206Z,20.90
2023-05-10T10:50:46.781Z,20.90
2023-05-10T10:53:50.570Z,20.90
2023-05-10T10:57:14.959Z,21.00
2023-05-10T11:00:26.530Z,21.00
2023-05-10T11:03:30.881Z,21.10
2023-05-10T11:06:35.564Z,21.00
2023-05-10T11:09:42.228Z,21.10
2023-05-10T11:12:54.343Z,21.40
2023-05-10T11:15:59.835Z,21.40
2023-05-10T11:19:06.911Z,21.50
2023-05-10T11:22:16.347Z,21.70
2023-05-10T11:25:19.925Z,21.70
2023-05-10T11:28:23.034Z,21.80
2023-05-10T11:31:28.246Z,21.90
2023-05-10T11:34:34.473Z,21.80
2023-05-10T11:37:39.021Z,21.90
2023-05-10T11:40:44.497Z,21.90
2023-05-10T11:43:49.885Z,21.70
2023-05-10T11:46:53.917Z,21.70
2023-05-10T11:49:59.121Z,21.90
2023-05-10T11:53:02.095Z,22.10
2023-05-10T11:56:06.355Z,22.20
2023-05-10T11:59:09.649Z,22.30
2023-05-10T12:02:14.299Z,22.50
2023-05-10T12:05:19.107Z,22.50
2023-05-10T12:08:24.413Z,22.60
2023-05-10T12:11:28.403Z,22.60
2023-05-10T12:14:34.417Z,22.50
2023-05-10T12:17:41.914Z,22.60
2023-05-10T12:20:47.610Z,22.70
2023-05-10T12:23:53.375Z,22.60
2023-05-10T12:26:56.565Z,22.70
2023-05-10T12:30:01.885Z,22.90
2023-05-10T12:33:09.635Z,23.10
2023-05-10T12:36:15.559Z,23.20
2023-05-10T12:39:18.738Z,23.20
2023-05-10T12:42:21.846Z,23.20
2023-05-10T12:45:24.835Z,23.30
2023-05-10T12:48:29.669Z,23.40
2023-05-10T12:51:34.158Z,23.50
2023-05-10T12:54:37.451Z,23.40
2023-05-10T12:57:40.451Z,23.30
2023-05-10T13:00:44.710Z,23.10
2023-05-10T13:03:47.717Z,22.90
2023-05-10T13:06:52.023Z,23.00
2023-05-10T13:09:54.957Z,23.30
2023-05-10T13:12:57.962Z,23.30
2023-05-10T13:16:00.966Z,23.40
2023-05-10T13:19:06.118Z,23.40
2023-05-10T13:22:10.588Z,23.40
2023-05-10T13:25:13.903Z,23.30
2023-05-10T13:28:16.904Z,23.20
2023-05-10T13:31:20.041Z,23.10
2023-05-10T13:34:23.172Z,23.10
2023-05-10T13:37:27.920Z,23.20
2023-05-10T13:40:31.921Z,23.20
2023-05-10T13:43:34.941Z,23.30
2023-05-10T13:46:39.522Z,23.30
2023-05-10T13:49:42.560Z,23.60
2023-05-10T13:52:46.890Z,23.60
2023-05-10T13:55:50.043Z,23.60
2023-05-10T13:58:53.295Z,23.40
2023-05-10T14:01:56.371Z,23.20
2023-05-10T14:04:59.408Z,23.30
2023-05-10T14:08:04.687Z,23.40
2023-05-10T14:11:07.719Z,23.60
2023-05-10T14:14:10.745Z,23.60
2023-05-10T14:17:13.848Z,23.60
2023-05-10T14:20:17.024Z,23.80
2023-05-10T14:23:25.018Z,23.80
2023-05-10T14:26:28.789Z,23.80
2023-05-10T14:29:31.951Z,23.80
2023-05-10T14:32:35.143Z,23.90
2023-05-10T14:35:38.766Z,23.90
2023-05-10T14:38:43.133Z,24.00
2023-05-10T14:41:46.684Z,24.10
2023-05-10T14:44:49.648Z,24.10
2023-05-10T14:47:52.846Z,24.20
2023-05-10T14:50:55.819Z,24.00
2023-05-10T14:54:00.552Z,23.90
2023-05-10T14:57:03.523Z,23.80
2023-05-10T15:00:07.716Z,23.80
2023-05-10T15:03:11.535Z,23.70
2023-05-10T15:06:16.598Z,23.70
2023-05-10T15:09:21.302Z,23.80
2023-05-10T15:12:24.364Z,23.90
2023-05-10T15:15:28.327Z,23.60
2023-05-10T15:18:31.439Z,23.60
2023-05-10T15:21:39.707Z,23.30
2023-05-10T15:24:44.612Z,23.00
2023-05-10T15:27:49.137Z,22.60
2023-05-10T15:30:52.219Z,22.50
2023-05-10T15:34:00.067Z,22.30
2023-05-10T15:37:03.031Z,22.10
2023-05-10T15:40:08.754Z,22.10
2023-05-10T15:43:11.722Z,22.10
2023-05-10T15:46:14.684Z,22.20
2023-05-10T15:49:18.317Z,22.20
2023-05-10T15:52:23.721Z,22.10
2023-05-10T15:55:28.204Z,22.00
2023-05-10T15:58:31.663Z,22.00
2023-05-10T16:01:35.426Z,22.00
2023-05-10T16:04:39.097Z,22.10
2023-05-10T16:07:42.360Z,22.10
2023-05-10T16:10:46.799Z,22.30
2023-05-10T16:13:49.722Z,22.40
2023-05-10T16:16:52.827Z,22.30
2023-05-10T16:19:58.275Z,22.00
2023-05-10T16:23:04.976Z,21.90
2023-05-10T16:26:09.341Z,21.80
2023-05-10T16:29:12.283Z,21.70
2023-05-10T16:32:15.276Z,21.60
2023-05-10T16:35:18.437Z,21.50
2023-05-10T16:38:21.807Z,21.50
2023-05-10T16:41:26.479Z,21.70
2023-05-10T16:44:29.444Z,21.60
2023-05-10T16:47:32.481Z,21.60
2023-05-10T16:50:35.523Z,21.50
2023-05-10T16:53:38.818Z,21.40
2023-05-10T16:56:43.199Z,21.30
2023-05-10T16:59:46.127Z,21.10
2023-05-10T17:02:49.565Z,20.90
2023-05-10T17:05:52.634Z,20.70
2023-05-10T17:08:55.620Z,20.60
2023-05-10T17:12:00.101Z,20.50
2023-05-10T17:15:03.207Z,20.30
2023-05-10T17:18:07.448Z,20.20
2023-05-10T17:21:11.387Z,20.00
2023-05-10T17:24:15.426Z,20.00
2023-05-10T17:27:20.086Z,19.90
2023-05-10T17:30:26.385Z,19.80
2023-05-10T17:33:29.417Z,19.70
2023-05-10T17:36:32.440Z,19.60
2023-05-10T17:39:36.756Z,19.50
2023-05-10T17:42:41.927Z,19.50
2023-05-10T17:45:46.639Z,19.50
2023-05-10T17:48:49.672Z,19.40
2023-05-10T17:51:52.712Z,19.30
2023-05-10T17:54:55.817Z,19.20
2023-05-10T17:58:00.827Z,19.10
2023-05-10T18:01:03.933Z,19.00
2023-05-10T18:04:07.842Z,19.00
2023-05-10T18:07:11.192Z,18.90
2023-05-10T18:10:14.146Z,18.80
2023-05-10T18:13:18.634Z,18.70
2023-05-10T18:16:21.748Z,18.50
2023-05-10T18:19:25.710Z,18.50
2023-05-10T18:22:28.700Z,18.40
2023-05-10T18:25:31.930Z,18.30
2023-05-10T18:28:36.849Z,18.30
2023-05-10T18:31:40.262Z,18.20
2023-05-10T18:34:43.331Z,18.10
2023-05-10T18:37:46.503Z,18.00
2023-05-10T18:40:51.504Z,18.00
2023-05-10T18:43:56.032Z,17.90
2023-05-10T18:46:59.297Z,17.80
2023-05-10T18:50:03.896Z,17.80
2023-05-10T18:53:08.640Z,17.60
2023-05-10T18:56:11.746Z,17.60
2023-05-10T18:59:18.453Z,17.50
2023-05-10T19:02:22.876Z,17.50
2023-05-10T19:05:30.048Z,17.40
2023-05-10T19:08:33.168Z,17.40
2023-05-10T19:11:36.513Z,17.30
2023-05-10T19:14:40.999Z,17.20
2023-05-10T19:17:45.982Z,17.20
2023-05-10T19:20:49.140Z,17.10
2023-05-10T19:23:52.213Z,17.00
2023-05-10T19:26:56.416Z,17.00
2023-05-10T19:30:02.066Z,16.90
2023-05-10T19:33:05.540Z,16.90
2023-05-10T19:36:09.100Z,16.80
2023-05-10T19:39:13.026Z,16.70
2023-05-10T19:42:16.187Z,16.70
2023-05-10T19:45:20.959Z,16.70
2023-05-10T19:48:23.965Z,16.60
2023-05-10T19:51:27.647Z,16.60
2023-05-10T19:54:30.897Z,16.50
2023-05-10T19:57:34.135Z,16.50
2023-05-10T20:00:38.500Z,16.50
2023-05-10T20:03:41.565Z,16.40
2023-05-10T20:06:44.667Z,16.40
2023-05-10T20:09:47.823Z,16.30
2023-05-10T20:12:52.406Z,16.20
2023-05-10T20:15:58.659Z,16.10
2023-05-10T20:19:01.786Z,16.10
2023-05-10T20:22:05.315Z,16.00
2023-05-10T20:25:10.071Z,16.00
2023-05-10T20:28:13.112Z,16.00
2023-05-10T20:31:18.304Z,15.90
2023-05-10T20:34:21.331Z,15.80
2023-05-10T20:37:24.787Z,15.80
2023-05-10T20:40:28.103Z,15.80
2023-05-10T20:43:31.256Z,15.70
2023-05-10T20:46:35.870Z,15.60
2023-05-10T20:49:39.224Z,15.60
2023-05-10T20:52:42.976Z,15.50
2023-05-10T20:55:46.010Z,15.40
2023-05-10T20:58:49.184Z,15.40
2023-05-10T21:01:55.940Z,15.40
2023-05-10T21:05:00.784Z,15.30
2023-05-10T21:08:03.805Z,15.20
2023-05-10T21:11:06.903Z,15.20
2023-05-10T21:14:10.291Z,15.10
2023-05-10T21:17:14.829Z,15.10
2023-05-10T21:20:25.331Z,15.00
2023-05-10T21:23:28.688Z,15.00
2023-05-10T21:26:31.787Z,15.00
2023-05-10T21:29:34.957Z,14.90
2023-05-10T21:32:39.464Z,14.90
2023-05-10T21:35:42.975Z,14.80
2023-05-10T21:38:46.635Z,14.80
2023-05-10T21:41:49.937Z,14.80
2023-05-10T21:44:53.766Z,14.70
2023-05-10T21:47:58.301Z,14.70
2023-05-10T21:51:01.593Z,14.60
2023-05-10T21:54:05.259Z,14.60
2023-05-10T21:57:08.600Z,14.60
2023-05-10T22:00:18.094Z,14.60
2023-05-10T22:03:23.005Z,14.50
2023-05-10T22:06:26.300Z,14.50
2023-05-10T22:09:29.724Z,14.50
2023-05-10T22:12:32.818Z,14.50
2023-05-10T22:15:36.682Z,14.50
2023-05-10T22:18:41.311Z,14.50
2023-05-10T22:21:44.484Z,14.50
2023-05-10T22:24:47.665Z,14.60
2023-05-10T22:27:51.119Z,14.60
2023-05-10T22:30:54.244Z,14.50
2023-05-10T22:33:58.781Z,14.50
2023-05-10T22:37:03.673Z,14.50
2023-05-10T22:40:08.199Z,14.50
2023-05-10T22:43:11.249Z,14.60
2023-05-10T22:46:14.594Z,14.50
2023-05-10T22:49:19.117Z,14.50
2023-05-10T22:52:22.831Z,14.50
2023-05-10T22:55:26.172Z,14.50
2023-05-10T22:58:30.712Z,14.50
2023-05-10T23:01:33.854Z,14.50
2023-05-10T23:04:38.483Z,14.40
2023-05-10T23:07:41.638Z,14.40
2023-05-10T23:10:44.911Z,14.40
2023-05-10T23:13:48.076Z,14.40
2023-05-10T23:16:51.152Z,14.30
2023-05-10T23:19:55.767Z,14.30
2023-05-10T23:22:59.565Z,14.20
2023-05-10T23:26:04.212Z,14.20
2023-05-10T23:29:07.408Z,14.20
2023-05-10T23:32:10.772Z,14.10
2023-05-10T23:35:15.582Z,14.10
2023-05-10T23:38:19.006Z,14.00
2023-05-10T23:41:22.085Z,14.00
2023-05-10T23:44:25.212Z,13.90
2023-05-10T23:47:28.252Z,13.90
2023-05-10T23:50:33.024Z,13.90
2023-05-10T23:53:37.749Z,13.80
2023-05-10T23:56:40.792Z,13.70
2023-05-10T23:59:43.968Z,13.70
